Clowne, United Kingdom
Current Conditions -  °F | °C
As of 9:20 PM on Wednesday 26 Nov 2014 (Local Time) from EGCN Reporting Station
Haze Haze  
Wind Chill: 44°   Ceiling: 100
Heat Index: 46°   Visibility: 0.93mi
Dew Point: 46°   Wind: 6mph
Humidity: 100%   Direction: 350°N
Pressure: 29.8"   Gusts: NA
Location:  53.27°N, 1.26°W
Report Text: EGCN 262120Z 35005KT 1500 R20/1400 BR OVC001 08/08 Q1009
Loading
Personal Weather Stations






























Interactive Weather Map New forecast layout! Learn more

10-Day Weather Forecast

Advertisements
Track Severe Weather on mobile